Time;durP1;ratioP1;P1;durP2;ratioP2;P2;SDS_P1;SDS_P2;PMS_P1;PMS_P2;Temp;Humidity;BMP_temperature;BMP_pressure;BME280_temperature;BME280_humidity;BME280_pressure;Samples;Min_cycle;Max_cycle;Signal;HPM_P1;HPM_P2
2022/01/21 00:00:52;;;;;;;6.38;1.92;;;14.60;83.40;;;;;;2003842;28;20173;-70
2022/01/21 00:01:51;;;;;;;2.40;2.10;;;14.60;83.20;;;;;;2004340;28;20204;-70
2022/01/21 00:02:49;;;;;;;4.00;2.80;;;14.60;83.60;;;;;;2005006;28;20219;-70
2022/01/21 00:03:49;;;;;;;4.33;2.57;;;14.60;83.30;;;;;;2004421;28;20223;-70
2022/01/21 00:04:47;;;;;;;4.40;2.95;;;14.60;83.40;;;;;;2004498;28;20169;-70
2022/01/21 00:05:46;;;;;;;3.23;2.00;;;14.60;83.30;;;;;;2005023;28;20180;-70
2022/01/21 00:06:47;;;;;;;4.37;2.53;;;14.60;83.60;;;;;;2004940;28;20238;-70
2022/01/21 00:07:45;;;;;;;4.07;2.30;;;14.60;83.40;;;;;;2004943;28;20239;-70
2022/01/21 00:08:46;;;;;;;2.73;1.90;;;14.60;83.30;;;;;;2004794;28;20213;-70
2022/01/21 00:09:46;;;;;;;3.72;2.13;;;14.60;83.30;;;;;;2004873;28;20208;-70
2022/01/21 00:10:45;;;;;;;5.65;1.92;;;14.60;83.20;;;;;;2004910;28;20170;-70
2022/01/21 00:11:43;;;;;;;4.33;2.50;;;14.70;83.30;;;;;;2004958;28;20308;-71
2022/01/21 00:12:43;;;;;;;2.00;1.40;;;14.60;83.30;;;;;;2004112;28;20187;-70
2022/01/21 00:13:42;;;;;;;3.72;2.40;;;14.70;84.00;;;;;;2004239;28;20173;-70
2022/01/21 00:14:43;;;;;;;4.35;2.50;;;14.70;83.20;;;;;;2004777;28;20215;-71
2022/01/21 00:15:42;;;;;;;3.83;2.10;;;14.70;83.30;;;;;;2004788;28;20252;-71
2022/01/21 00:16:42;;;;;;;8.07;2.58;;;14.70;83.10;;;;;;2004545;28;20201;-71
2022/01/21 00:17:40;;;;;;;3.78;2.10;;;14.70;82.90;;;;;;2004854;28;20169;-71
2022/01/21 00:18:42;;;;;;;3.80;2.50;;;14.70;83.20;;;;;;2004197;28;20180;-71
2022/01/21 00:19:44;;;;;;;3.55;2.28;;;14.70;83.20;;;;;;2004200;28;20216;-71
2022/01/21 00:31:21;;;;;;;2.83;2.40;;;14.70;83.10;;;;;;1996048;28;20512;-70
2022/01/21 00:32:20;;;;;;;2.93;1.73;;;14.70;83.30;;;;;;2001507;28;20225;-69
2022/01/21 00:33:19;;;;;;;2.30;2.10;;;14.70;83.10;;;;;;2004219;28;20192;-70
2022/01/21 00:34:17;;;;;;;2.90;1.70;;;14.70;83.20;;;;;;2004152;28;20539;-70
2022/01/21 00:35:18;;;;;;;4.50;2.23;;;14.70;83.10;;;;;;2004636;28;20181;-69
2022/01/21 00:36:16;;;;;;;2.80;2.10;;;14.70;83.20;;;;;;2004613;28;20174;-69
2022/01/21 00:37:15;;;;;;;2.37;1.73;;;14.70;83.10;;;;;;1996103;28;20213;-69
2022/01/21 00:38:14;;;;;;;3.30;2.03;;;14.70;83.00;;;;;;1996245;28;20260;-69
2022/01/21 00:39:13;;;;;;;4.30;2.15;;;14.70;83.20;;;;;;2004211;28;20162;-69
2022/01/21 00:40:16;;;;;;;2.90;1.90;;;14.80;83.20;;;;;;2004975;28;20184;-69
2022/01/21 00:41:21;;;;;;;3.85;1.98;;;14.80;83.40;;;;;;2004801;28;20513;-69
2022/01/21 00:43:30;;;;;;;2.90;2.03;;;14.80;83.10;;;;;;2004723;28;20169;-69
2022/01/21 00:44:29;;;;;;;1.92;1.73;;;14.80;83.10;;;;;;2004622;28;20200;-69
2022/01/21 00:45:29;;;;;;;2.77;2.10;;;14.80;83.00;;;;;;2004654;28;20173;-70
2022/01/21 00:46:29;;;;;;;6.43;2.03;;;14.80;83.10;;;;;;2004569;28;20288;-70
2022/01/21 00:47:28;;;;;;;3.58;2.63;;;14.80;83.00;;;;;;2004562;28;20185;-70
2022/01/21 00:48:27;;;;;;;2.53;1.85;;;14.80;83.00;;;;;;2004619;28;20169;-70
2022/01/21 00:49:26;;;;;;;3.17;2.22;;;14.80;83.20;;;;;;2004610;28;20181;-69
2022/01/21 00:50:25;;;;;;;6.88;2.20;;;14.80;82.90;;;;;;2004663;28;20507;-70
2022/01/21 00:51:23;;;;;;;3.63;2.33;;;14.80;83.20;;;;;;2004630;28;20188;-70
2022/01/21 00:52:22;;;;;;;3.63;2.73;;;14.80;83.30;;;;;;2004648;28;20184;-70
2022/01/21 00:53:21;;;;;;;3.10;2.10;;;14.70;83.00;;;;;;2004695;28;20576;-70
2022/01/21 00:54:19;;;;;;;3.80;2.00;;;14.80;83.00;;;;;;2004594;28;20181;-70
2022/01/21 00:55:18;;;;;;;3.43;2.13;;;14.80;82.90;;;;;;2004643;28;20195;-70
2022/01/21 00:56:17;;;;;;;2.60;1.60;;;14.80;83.20;;;;;;2003759;28;20340;-69
2022/01/21 00:57:16;;;;;;;3.40;2.27;;;14.70;82.90;;;;;;2003950;28;20283;-70
2022/01/21 00:58:16;;;;;;;3.30;2.00;;;14.80;83.10;;;;;;2004732;28;20180;-69
2022/01/21 00:59:18;;;;;;;4.00;1.95;;;14.80;82.90;;;;;;2004841;28;20639;-69
2022/01/21 01:00:17;;;;;;;2.88;1.90;;;14.80;82.80;;;;;;2004743;28;20255;-70
2022/01/21 01:01:16;;;;;;;4.23;2.23;;;14.80;82.90;;;;;;2004537;28;20177;-70
2022/01/21 01:02:14;;;;;;;3.27;1.90;;;14.80;83.00;;;;;;2004597;28;20652;-70
2022/01/21 01:03:14;;;;;;;2.30;1.63;;;14.70;82.90;;;;;;2004589;28;20257;-70
2022/01/21 01:04:13;;;;;;;2.30;1.80;;;14.80;82.80;;;;;;2004706;28;20247;-70
2022/01/21 01:05:12;;;;;;;3.70;1.80;;;14.70;82.60;;;;;;2004550;28;20235;-69
2022/01/21 01:06:10;;;;;;;3.10;1.95;;;14.80;82.80;;;;;;2004567;28;20576;-70
2022/01/21 01:07:09;;;;;;;2.90;1.67;;;14.70;82.80;;;;;;2004798;28;20185;-69
2022/01/21 01:08:09;;;;;;;3.20;1.70;;;14.70;82.80;;;;;;2004546;28;20173;-70
2022/01/21 01:09:09;;;;;;;2.80;1.70;;;14.80;82.90;;;;;;2004736;28;20260;-70
2022/01/21 01:10:13;;;;;;;2.22;2.00;;;14.80;83.40;;;;;;2004599;28;20276;-69
2022/01/21 01:11:18;;;;;;;2.63;2.28;;;14.80;83.50;;;;;;2004595;28;20184;-70
2022/01/21 01:12:32;;;;;;;3.08;2.00;;;14.80;82.90;;;;;;2004712;28;20165;-69
2022/01/21 01:20:07;;;;;;;2.60;1.48;;;14.70;82.60;;;;;;2004588;28;20188;-69
2022/01/21 01:21:07;;;;;;;2.58;1.90;;;14.70;82.60;;;;;;2004490;28;20513;-69
2022/01/21 01:22:07;;;;;;;3.50;2.15;;;14.60;82.60;;;;;;2004482;28;20187;-69
2022/01/21 01:23:19;;;;;;;4.13;2.00;;;14.60;82.70;;;;;;2004446;28;20200;-70
2022/01/21 01:28:09;;;;;;;4.85;2.25;;;14.60;82.60;;;;;;2004677;28;20612;-69
2022/01/21 01:29:10;;;;;;;2.40;2.00;;;14.60;82.30;;;;;;2004515;28;20256;-69
2022/01/21 01:30:13;;;;;;;4.20;2.20;;;14.60;82.50;;;;;;2004481;28;20204;-69
2022/01/21 01:31:12;;;;;;;2.63;1.70;;;14.60;82.40;;;;;;2004406;28;20232;-69
2022/01/21 01:32:11;;;;;;;3.57;1.90;;;14.60;82.40;;;;;;2004487;28;20169;-69
2022/01/21 01:33:13;;;;;;;4.07;2.00;;;14.60;82.50;;;;;;2004439;28;20165;-69
2022/01/21 01:34:12;;;;;;;4.22;2.33;;;14.60;82.50;;;;;;2005491;28;20223;-70
2022/01/21 01:35:16;;;;;;;2.85;1.60;;;14.60;82.60;;;;;;2005931;28;20173;-70
2022/01/21 01:36:17;;;;;;;1.80;1.60;;;14.60;82.70;;;;;;2006104;28;20161;-69
2022/01/21 01:37:32;;;;;;;3.30;1.65;;;14.60;83.00;;;;;;2005938;28;20203;-69
2022/01/21 01:41:16;;;;;;;2.78;2.20;;;14.60;83.20;;;;;;2005207;28;20162;-70
2022/01/21 01:49:41;;;;;;;10.40;2.00;;;14.70;83.00;;;;;;2006116;28;20181;-69
2022/01/21 01:50:39;;;;;;;4.85;2.20;;;14.60;82.90;;;;;;2006133;28;20158;-70
2022/01/21 01:51:38;;;;;;;3.23;2.13;;;14.60;82.90;;;;;;2005860;28;20692;-70
2022/01/21 01:52:36;;;;;;;2.20;1.53;;;14.70;83.10;;;;;;2005871;28;20177;-70
2022/01/21 01:53:39;;;;;;;4.50;2.10;;;14.70;83.00;;;;;;2005965;28;20168;-70
2022/01/21 01:54:51;;;;;;;3.72;2.35;;;14.70;83.70;;;;;;2005881;28;20898;-70
2022/01/21 01:55:49;;;;;;;2.63;1.52;;;14.70;83.00;;;;;;2005234;28;20183;-70
2022/01/21 01:56:53;;;;;;;4.70;2.10;;;14.70;83.00;;;;;;2005196;28;20193;-70
2022/01/21 01:57:52;;;;;;;4.18;2.00;;;14.70;83.10;;;;;;2005180;28;20165;-70
2022/01/21 01:58:51;;;;;;;1.88;1.67;;;14.70;83.20;;;;;;2005347;28;20212;-70
2022/01/21 01:59:50;;;;;;;3.47;1.83;;;14.70;82.90;;;;;;2005979;28;20168;-70
2022/01/21 02:00:48;;;;;;;2.60;1.73;;;14.70;83.80;;;;;;2005870;28;20173;-70
2022/01/21 02:01:52;;;;;;;1.50;1.20;;;14.70;83.00;;;;;;2005810;28;20181;-70
2022/01/21 02:02:52;;;;;;;4.10;2.15;;;14.80;83.20;;;;;;2006005;28;20165;-70
2022/01/21 02:03:50;;;;;;;3.53;2.05;;;14.80;83.10;;;;;;2005790;28;20173;-70
2022/01/21 02:04:49;;;;;;;3.67;2.07;;;14.70;83.00;;;;;;2005799;28;20227;-70
2022/01/21 02:05:48;;;;;;;4.07;1.70;;;14.70;82.80;;;;;;2005918;28;20248;-70
2022/01/21 02:06:48;;;;;;;5.83;1.63;;;14.80;83.10;;;;;;2005748;28;20424;-70
2022/01/21 02:07:46;;;;;;;4.50;1.70;;;14.80;83.00;;;;;;2005708;28;20216;-70
2022/01/21 02:08:45;;;;;;;5.80;1.73;;;14.80;83.20;;;;;;2005989;28;20567;-70
2022/01/21 02:09:44;;;;;;;2.77;2.00;;;14.80;83.00;;;;;;2005808;28;20168;-70
2022/01/21 02:10:42;;;;;;;8.73;2.23;;;14.80;82.80;;;;;;2005828;28;20418;-69
2022/01/21 02:11:41;;;;;;;2.50;1.60;;;14.80;82.90;;;;;;2005957;28;20181;-69
2022/01/21 02:12:41;;;;;;;2.40;1.80;;;14.80;82.90;;;;;;2005728;28;20161;-69
2022/01/21 02:13:46;;;;;;;3.42;2.20;;;14.80;83.20;;;;;;2005788;28;20403;-70
2022/01/21 02:14:50;;;;;;;3.05;1.85;;;14.80;83.10;;;;;;2006028;28;20158;-69
2022/01/21 02:16:06;;;;;;;4.63;2.17;;;14.80;83.20;;;;;;2005767;28;20159;-69
2022/01/21 02:21:26;;;;;;;4.78;1.70;;;14.80;82.90;;;;;;2005765;28;20184;-69
2022/01/21 02:22:38;;;;;;;2.65;1.60;;;14.70;82.90;;;;;;2005552;28;20161;-70
2022/01/21 02:23:36;;;;;;;2.90;1.38;;;14.80;83.30;;;;;;2005773;28;20613;-70
2022/01/21 02:24:48;;;;;;;1.93;1.73;;;14.80;83.30;;;;;;2005782;28;20201;-70
2022/01/21 02:25:46;;;;;;;2.28;1.48;;;14.80;83.20;;;;;;2005874;28;20157;-71
2022/01/21 02:26:47;;;;;;;1.80;1.60;;;14.80;83.20;;;;;;2005695;28;20196;-70
2022/01/21 02:27:49;;;;;;;2.22;1.80;;;14.80;83.20;;;;;;2005590;28;20606;-70
2022/01/21 02:28:47;;;;;;;4.18;2.10;;;14.80;83.00;;;;;;2005736;28;20239;-70
2022/01/21 02:29:59;;;;;;;3.20;1.53;;;14.80;83.10;;;;;;2005034;28;20184;-70
2022/01/21 02:30:59;;;;;;;2.15;1.48;;;14.80;83.00;;;;;;2005265;28;20313;-70
2022/01/21 02:32:00;;;;;;;4.13;1.70;;;14.80;82.90;;;;;;2005570;28;20185;-69
2022/01/21 02:33:01;;;;;;;2.90;1.83;;;14.80;82.90;;;;;;2005669;28;20268;-70
2022/01/21 02:34:00;;;;;;;3.33;1.90;;;14.80;83.10;;;;;;2005726;28;20546;-70
2022/01/21 02:35:00;;;;;;;2.35;1.30;;;14.80;82.80;;;;;;2005570;28;20235;-70
2022/01/21 02:35:58;;;;;;;8.52;1.98;;;14.70;82.80;;;;;;2005688;28;20173;-70
2022/01/21 02:36:57;;;;;;;3.17;1.60;;;14.90;83.10;;;;;;2005427;28;20193;-70
2022/01/21 02:37:55;;;;;;;2.23;1.40;;;14.80;82.80;;;;;;2005593;28;20173;-70
2022/01/21 02:38:54;;;;;;;4.47;1.70;;;14.80;82.90;;;;;;2005653;28;20239;-70
2022/01/21 02:39:52;;;;;;;2.17;1.60;;;14.80;82.90;;;;;;2004906;28;20216;-70
2022/01/21 02:40:51;;;;;;;4.20;1.80;;;14.80;82.90;;;;;;2005021;28;20173;-70
2022/01/21 02:41:49;;;;;;;3.33;1.57;;;14.80;82.90;;;;;;2005703;28;20173;-70
2022/01/21 02:42:48;;;;;;;2.40;1.80;;;14.80;83.00;;;;;;2005513;28;20319;-70
2022/01/21 02:43:47;;;;;;;3.00;1.90;;;14.80;82.80;;;;;;2005512;28;20207;-70
2022/01/21 02:44:46;;;;;;;4.80;2.33;;;14.80;82.80;;;;;;2005751;28;20177;-70
2022/01/21 02:45:46;;;;;;;2.50;1.73;;;14.80;82.60;;;;;;2004972;28;20253;-70
2022/01/21 02:46:46;;;;;;;2.15;1.60;;;14.80;82.80;;;;;;2005602;28;20543;-70
2022/01/21 02:47:46;;;;;;;5.15;1.80;;;14.80;82.80;;;;;;2005531;28;20181;-70
2022/01/21 02:48:44;;;;;;;3.55;1.92;;;14.80;82.80;;;;;;2005638;28;20173;-70
2022/01/21 02:49:43;;;;;;;1.90;1.33;;;14.80;82.70;;;;;;2005688;28;20706;-70
2022/01/21 02:50:41;;;;;;;3.43;2.20;;;14.80;82.70;;;;;;2005535;28;20542;-70
2022/01/21 02:51:41;;;;;;;2.23;1.40;;;14.80;82.90;;;;;;2005469;28;20537;-70
2022/01/21 02:52:54;;;;;;;2.40;1.48;;;14.80;82.80;;;;;;2005418;28;20172;-70
2022/01/21 02:54:51;;;;;;;3.30;1.60;;;14.80;83.10;;;;;;1998647;28;20170;-70
2022/01/21 02:55:50;;;;;;;2.60;1.60;;;14.80;82.90;;;;;;2005403;28;20165;-71
2022/01/21 02:56:49;;;;;;;2.53;1.40;;;14.90;83.10;;;;;;2005475;28;20247;-71
2022/01/21 02:57:47;;;;;;;2.90;1.43;;;14.90;82.90;;;;;;2005487;28;20260;-70
2022/01/21 02:58:47;;;;;;;3.60;1.97;;;14.80;82.80;;;;;;2005588;28;20178;-70
2022/01/21 02:59:45;;;;;;;1.88;1.65;;;14.80;82.70;;;;;;2005422;28;20367;-70
2022/01/21 03:00:44;;;;;;;2.20;1.40;;;14.90;83.00;;;;;;2005505;28;20683;-70
2022/01/21 03:01:44;;;;;;;6.03;1.70;;;14.90;82.90;;;;;;2005412;28;20170;-70
2022/01/21 03:02:42;;;;;;;2.58;1.58;;;14.80;82.90;;;;;;2005346;28;20173;-70
2022/01/21 03:03:43;;;;;;;2.67;1.30;;;14.80;82.80;;;;;;2005489;28;20170;-70
2022/01/21 03:04:53;;;;;;;2.10;1.27;;;14.80;82.60;;;;;;2005426;28;20193;-70
2022/01/21 03:05:52;;;;;;;4.53;1.85;;;14.80;83.40;;;;;;2005514;28;20163;-69
2022/01/21 03:06:52;;;;;;;2.03;1.30;;;14.80;83.00;;;;;;2005295;28;20578;-69
2022/01/21 03:07:50;;;;;;;2.67;1.27;;;14.80;83.10;;;;;;2005520;28;20262;-70
2022/01/21 03:08:52;;;;;;;4.60;1.50;;;14.80;82.70;;;;;;2005407;28;20271;-70
2022/01/21 03:09:51;;;;;;;1.33;1.13;;;14.80;82.70;;;;;;2005277;28;20203;-70
2022/01/21 03:10:52;;;;;;;6.33;1.97;;;14.80;82.60;;;;;;2005401;28;20645;-70
2022/01/21 03:11:50;;;;;;;6.80;1.88;;;14.70;82.80;;;;;;2005493;28;20221;-70
2022/01/21 03:12:49;;;;;;;3.47;1.80;;;14.80;82.70;;;;;;2005310;28;20165;-69
2022/01/21 03:13:48;;;;;;;1.67;1.40;;;14.80;82.90;;;;;;2005478;28;20196;-70
2022/01/21 03:14:46;;;;;;;4.00;2.30;;;14.70;82.70;;;;;;2005302;28;20211;-70
2022/01/21 03:15:44;;;;;;;7.70;2.00;;;14.80;83.00;;;;;;2005453;28;20173;-70
2022/01/21 03:16:43;;;;;;;1.40;1.27;;;14.70;82.80;;;;;;2005351;28;20188;-70
2022/01/21 03:17:42;;;;;;;3.17;1.83;;;14.70;82.80;;;;;;2005196;28;20272;-70
2022/01/21 03:18:42;;;;;;;3.50;1.70;;;14.70;82.60;;;;;;2005255;28;20207;-69
2022/01/21 03:19:40;;;;;;;4.45;1.40;;;14.70;82.80;;;;;;2004562;28;20252;-70
2022/01/21 03:20:39;;;;;;;2.40;1.67;;;14.70;82.70;;;;;;2004675;28;20177;-70
2022/01/21 03:21:38;;;;;;;2.33;1.60;;;14.70;82.90;;;;;;2005361;28;20165;-70
2022/01/21 03:22:36;;;;;;;2.60;1.60;;;14.70;82.80;;;;;;2005258;28;20245;-69
2022/01/21 03:23:35;;;;;;;5.17;1.67;;;14.70;83.00;;;;;;2005371;28;20248;-70
2022/01/21 03:24:33;;;;;;;2.80;1.67;;;14.60;82.70;;;;;;2005323;28;20173;-69
2022/01/21 03:25:32;;;;;;;2.73;1.77;;;14.70;82.90;;;;;;2005267;28;20260;-69
2022/01/21 03:26:31;;;;;;;3.80;1.90;;;14.70;83.20;;;;;;2004442;28;20197;-69
2022/01/21 03:27:31;;;;;;;2.10;1.20;;;14.60;83.20;;;;;;2004859;28;20180;-70
2022/01/21 03:28:29;;;;;;;2.28;1.60;;;14.60;83.10;;;;;;2005116;28;20310;-70
2022/01/21 03:29:28;;;;;;;1.93;1.40;;;14.60;83.20;;;;;;2004536;28;20180;-70
2022/01/21 03:30:26;;;;;;;3.87;1.33;;;14.70;83.40;;;;;;2004569;28;20188;-70
2022/01/21 03:31:26;;;;;;;4.57;2.07;;;14.70;83.50;;;;;;2005189;28;20211;-70
2022/01/21 03:32:25;;;;;;;4.68;1.30;;;14.70;83.30;;;;;;2005115;28;20192;-70
2022/01/21 03:33:25;;;;;;;6.32;1.55;;;14.70;83.30;;;;;;2005107;28;20260;-70
2022/01/21 03:34:23;;;;;;;4.53;1.80;;;14.70;83.30;;;;;;2005256;28;20173;-70
2022/01/21 03:35:22;;;;;;;2.80;1.50;;;14.70;83.30;;;;;;2005134;28;20259;-70
2022/01/21 03:36:20;;;;;;;3.57;1.93;;;14.70;83.30;;;;;;2004440;28;20184;-70
2022/01/21 03:37:19;;;;;;;1.93;1.17;;;14.70;83.30;;;;;;2004529;28;20652;-70
2022/01/21 03:38:18;;;;;;;4.73;1.90;;;14.70;83.20;;;;;;2005111;28;20231;-69
2022/01/21 03:39:17;;;;;;;3.40;1.35;;;14.70;83.30;;;;;;2005161;28;20543;-70
2022/01/21 03:40:15;;;;;;;5.77;1.80;;;14.70;83.10;;;;;;2005175;28;20188;-70
2022/01/21 03:41:15;;;;;;;3.50;1.60;;;14.70;83.20;;;;;;2005173;28;20205;-70
2022/01/21 03:42:13;;;;;;;3.38;1.50;;;14.70;83.30;;;;;;2005240;28;20177;-70
2022/01/21 03:43:12;;;;;;;2.93;1.40;;;14.70;83.30;;;;;;2005103;28;20272;-70
2022/01/21 03:44:10;;;;;;;6.07;1.83;;;14.70;83.30;;;;;;2005146;28;20176;-70
2022/01/21 03:45:11;;;;;;;1.93;1.30;;;14.80;83.20;;;;;;2004454;28;20173;-70
2022/01/21 03:46:10;;;;;;;6.20;1.65;;;14.80;83.40;;;;;;2004412;28;20169;-70
2022/01/21 03:47:10;;;;;;;2.67;1.43;;;14.80;83.40;;;;;;2004431;28;20197;-70
2022/01/21 03:48:08;;;;;;;3.78;1.75;;;14.80;83.10;;;;;;2004550;28;20169;-70
2022/01/21 03:49:08;;;;;;;3.10;1.67;;;14.80;83.30;;;;;;2005236;28;20187;-70
2022/01/21 03:50:30;;;;;;;3.50;1.75;;;14.80;83.30;;;;;;2005042;28;20184;-70
2022/01/21 03:51:29;;;;;;;2.15;1.35;;;14.80;83.10;;;;;;2005064;28;20616;-69
2022/01/21 03:52:27;;;;;;;5.03;1.90;;;14.80;83.30;;;;;;2004854;28;20263;-69
2022/01/21 03:53:26;;;;;;;4.03;1.63;;;14.90;83.30;;;;;;2004963;28;20176;-69
2022/01/21 03:54:25;;;;;;;4.80;1.37;;;14.90;83.50;;;;;;2005315;28;20256;-69
2022/01/21 03:55:23;;;;;;;4.47;1.80;;;14.80;83.40;;;;;;2005172;28;20691;-69
2022/01/21 03:56:22;;;;;;;2.00;1.10;;;14.90;83.40;;;;;;2004774;28;20283;-69
2022/01/21 03:57:20;;;;;;;3.57;2.10;;;14.90;83.40;;;;;;2003786;28;20201;-70
2022/01/21 03:58:19;;;;;;;7.20;1.67;;;14.90;83.20;;;;;;2004363;28;20181;-69
2022/01/21 03:59:17;;;;;;;2.13;1.27;;;14.90;83.40;;;;;;2004978;28;20169;-70
2022/01/21 04:00:29;;;;;;;2.77;1.50;;;14.80;83.20;;;;;;2005018;28;20254;-69
2022/01/21 04:01:28;;;;;;;3.67;1.77;;;14.90;83.20;;;;;;2005113;28;20309;-70
2022/01/21 04:02:27;;;;;;;1.88;1.45;;;14.80;83.00;;;;;;2004983;28;20252;-70
2022/01/21 04:03:26;;;;;;;3.10;1.27;;;14.90;83.40;;;;;;2004320;28;20589;-70
2022/01/21 04:04:25;;;;;;;4.35;1.83;;;14.80;83.20;;;;;;2004486;28;20165;-70
2022/01/21 04:05:25;;;;;;;2.70;1.40;;;14.90;83.30;;;;;;2004844;28;20214;-70
2022/01/21 04:06:24;;;;;;;2.92;1.77;;;14.90;83.10;;;;;;2004905;28;21464;-70
2022/01/21 04:07:23;;;;;;;2.72;1.50;;;14.90;83.20;;;;;;2004893;28;20296;-69
2022/01/21 04:08:21;;;;;;;3.50;1.83;;;14.90;83.20;;;;;;2004919;28;20227;-70
2022/01/21 04:09:21;;;;;;;2.13;1.20;;;14.90;83.30;;;;;;2004915;28;20248;-70
2022/01/21 04:10:20;;;;;;;1.90;1.38;;;14.90;83.40;;;;;;2004833;28;20263;-70
2022/01/21 04:11:19;;;;;;;3.97;1.37;;;14.90;83.10;;;;;;2005042;28;20189;-70
2022/01/21 04:12:17;;;;;;;2.33;1.43;;;14.90;83.30;;;;;;2004990;28;20257;-70
2022/01/21 04:13:19;;;;;;;3.50;1.50;;;14.90;83.10;;;;;;2005123;28;20181;-70
2022/01/21 04:14:18;;;;;;;3.45;1.85;;;14.90;83.30;;;;;;2004874;28;20204;-70
2022/01/21 04:15:17;;;;;;;2.33;1.60;;;14.90;83.40;;;;;;2004872;28;20284;-70
2022/01/21 04:16:15;;;;;;;3.83;1.97;;;14.90;83.20;;;;;;2004104;28;20177;-69
2022/01/21 04:17:14;;;;;;;2.40;1.40;;;14.90;83.30;;;;;;2004273;28;20448;-70
2022/01/21 04:18:13;;;;;;;2.67;1.43;;;14.90;83.10;;;;;;2004908;28;20184;-70
2022/01/21 04:19:12;;;;;;;1.55;1.20;;;14.90;83.80;;;;;;2004393;28;20211;-69
2022/01/21 04:20:12;;;;;;;4.00;2.00;;;14.90;83.30;;;;;;2004452;28;20177;-70
2022/01/21 04:21:11;;;;;;;4.15;1.45;;;14.90;83.00;;;;;;2004890;28;20609;-70
2022/01/21 04:22:09;;;;;;;3.33;1.50;;;14.90;83.10;;;;;;2005009;28;20196;-70
2022/01/21 04:23:10;;;;;;;2.03;1.60;;;14.90;83.10;;;;;;2004769;28;20252;-70
2022/01/21 04:24:09;;;;;;;2.30;1.30;;;14.90;82.90;;;;;;2004416;28;20179;-71
2022/01/21 04:25:08;;;;;;;2.13;1.40;;;14.90;83.10;;;;;;1996361;28;20236;-70
2022/01/21 04:26:07;;;;;;;5.80;1.30;;;14.90;83.10;;;;;;2003995;28;20503;-70
2022/01/21 04:27:05;;;;;;;1.40;1.20;;;14.90;83.10;;;;;;2003877;28;20180;-70
2022/01/21 04:28:04;;;;;;;3.67;1.70;;;14.90;83.10;;;;;;2004758;28;20611;-70
2022/01/21 04:29:03;;;;;;;1.67;1.20;;;14.90;83.10;;;;;;2004865;28;20172;-70
2022/01/21 04:30:04;;;;;;;3.53;1.33;;;14.90;83.70;;;;;;2004975;28;20181;-70
2022/01/21 04:31:03;;;;;;;1.70;1.35;;;14.90;82.90;;;;;;2004736;28;20166;-70
2022/01/21 04:32:02;;;;;;;10.17;2.23;;;14.90;83.00;;;;;;2004758;28;20173;-70
2022/01/21 04:33:01;;;;;;;3.27;1.50;;;14.90;82.90;;;;;;2004760;28;20686;-70
2022/01/21 04:33:59;;;;;;;2.97;1.60;;;14.90;82.80;;;;;;2004766;28;20220;-70
2022/01/21 04:34:58;;;;;;;3.50;1.63;;;14.90;82.90;;;;;;2004838;28;20197;-70
2022/01/21 04:35:57;;;;;;;3.42;1.50;;;14.90;82.90;;;;;;2004760;28;20172;-69
2022/01/21 04:36:56;;;;;;;6.45;1.50;;;14.90;82.90;;;;;;2004722;28;20197;-70
2022/01/21 04:38:01;;;;;;;3.80;1.70;;;14.90;82.90;;;;;;2004894;28;20264;-70
2022/01/21 04:39:02;;;;;;;3.55;1.48;;;14.90;82.90;;;;;;2004722;28;20157;-70
2022/01/21 04:40:11;;;;;;;2.35;1.40;;;14.90;83.10;;;;;;2004757;28;20659;-70
2022/01/21 04:48:14;;;;;;;3.58;1.50;;;14.80;82.90;;;;;;2004800;28;20161;-70
2022/01/21 04:49:14;;;;;;;4.47;1.53;;;14.80;82.90;;;;;;2004722;28;20204;-70
2022/01/21 04:50:14;;;;;;;3.63;1.52;;;14.80;83.10;;;;;;2004632;28;20191;-70
2022/01/21 04:52:11;;;;;;;2.60;1.37;;;14.80;83.10;;;;;;2004765;28;20215;-70
2022/01/21 04:53:10;;;;;;;2.72;1.50;;;14.90;83.10;;;;;;2004522;28;20263;-71
2022/01/21 04:54:09;;;;;;;6.97;1.83;;;14.80;82.80;;;;;;2004883;28;20181;-70
2022/01/21 04:55:09;;;;;;;2.90;1.55;;;14.90;82.90;;;;;;2004672;28;20887;-70
2022/01/21 04:56:08;;;;;;;5.35;1.60;;;14.80;82.90;;;;;;2004406;28;20695;-70
2022/01/21 04:57:08;;;;;;;3.65;1.60;;;14.90;83.20;;;;;;2004355;28;20187;-70
2022/01/21 04:58:08;;;;;;;2.00;1.38;;;14.80;82.80;;;;;;2004557;28;20169;-70
2022/01/21 04:59:07;;;;;;;4.10;1.48;;;14.90;83.10;;;;;;2004522;28;20204;-70
2022/01/21 05:00:07;;;;;;;5.78;1.50;;;14.90;82.90;;;;;;2004589;28;20247;-70
2022/01/21 05:01:06;;;;;;;4.80;1.70;;;14.90;82.90;;;;;;2004641;28;20173;-70
2022/01/21 05:02:05;;;;;;;4.22;1.42;;;14.90;82.90;;;;;;2004624;28;20169;-70
2022/01/21 05:03:04;;;;;;;3.30;1.53;;;14.80;82.90;;;;;;2004688;28;20539;-70
2022/01/21 05:04:02;;;;;;;3.13;1.47;;;14.90;83.20;;;;;;2004648;28;20229;-70
2022/01/21 05:05:02;;;;;;;4.70;1.70;;;14.90;82.90;;;;;;2004747;28;20196;-70
2022/01/21 05:06:01;;;;;;;3.95;2.00;;;14.90;83.20;;;;;;2004707;28;20165;-70
2022/01/21 05:07:02;;;;;;;3.40;1.80;;;14.90;83.10;;;;;;2004717;28;20287;-70
2022/01/21 05:08:05;;;;;;;3.70;1.60;;;14.90;83.10;;;;;;2004541;28;20174;-70
2022/01/21 05:09:05;;;;;;;2.38;1.50;;;14.90;83.10;;;;;;2003736;28;20675;-70
2022/01/21 05:10:04;;;;;;;6.10;1.67;;;14.80;82.70;;;;;;2004127;28;20222;-70
2022/01/21 05:11:04;;;;;;;3.85;1.60;;;14.80;82.90;;;;;;2003953;28;20593;-70
2022/01/21 05:12:08;;;;;;;2.20;1.52;;;14.80;82.90;;;;;;2004064;28;20173;-70
2022/01/21 05:13:07;;;;;;;3.17;1.27;;;14.80;83.00;;;;;;2004593;28;20158;-70
2022/01/21 05:14:17;;;;;;;2.67;1.40;;;14.80;82.90;;;;;;2004544;28;20165;-70
2022/01/21 05:15:27;;;;;;;2.55;1.20;;;14.80;83.10;;;;;;2004693;28;20180;-70
2022/01/21 05:16:37;;;;;;;5.03;1.73;;;14.80;83.20;;;;;;2004070;28;20200;-70
2022/01/21 05:17:43;;;;;;;2.00;1.45;;;14.80;82.90;;;;;;2004076;28;20228;-70
2022/01/21 05:18:42;;;;;;;4.13;1.60;;;14.80;83.00;;;;;;2004689;28;20149;-70
2022/01/21 05:19:41;;;;;;;4.13;1.80;;;14.80;83.20;;;;;;2004613;28;20165;-70
2022/01/21 05:20:39;;;;;;;3.90;2.15;;;14.80;83.10;;;;;;2004580;28;20165;-70
2022/01/21 05:21:39;;;;;;;2.40;1.77;;;14.70;83.00;;;;;;2004581;28;20173;-70
2022/01/21 05:22:38;;;;;;;2.25;1.33;;;14.70;83.10;;;;;;2004595;28;20700;-70
2022/01/21 05:23:36;;;;;;;4.07;1.40;;;14.80;83.20;;;;;;2004586;28;20176;-70
2022/01/21 05:24:37;;;;;;;3.35;1.35;;;14.80;83.40;;;;;;2004625;28;20630;-70
2022/01/21 05:25:37;;;;;;;2.13;1.50;;;14.70;83.60;;;;;;2004634;28;20263;-70
2022/01/21 05:26:39;;;;;;;4.10;1.88;;;14.70;83.60;;;;;;2004540;28;20260;-70
2022/01/21 05:27:38;;;;;;;2.55;1.30;;;14.70;83.70;;;;;;2004691;28;20235;-69
2022/01/21 05:28:37;;;;;;;3.93;1.70;;;14.70;83.60;;;;;;2004645;28;20196;-70
2022/01/21 05:29:35;;;;;;;3.30;1.60;;;14.70;83.60;;;;;;2004619;28;20756;-70
2022/01/21 05:30:34;;;;;;;2.73;1.23;;;14.70;83.80;;;;;;2004483;28;20555;-70
2022/01/21 05:31:33;;;;;;;6.20;1.77;;;14.80;84.30;;;;;;2004683;28;20272;-70
2022/01/21 05:32:32;;;;;;;2.30;1.30;;;14.70;84.00;;;;;;2004551;28;20261;-70
2022/01/21 05:33:30;;;;;;;3.57;1.70;;;14.80;84.00;;;;;;2005895;28;20545;-70
2022/01/21 05:34:29;;;;;;;3.67;1.30;;;14.70;83.90;;;;;;2006491;28;20557;-69
2022/01/21 05:35:27;;;;;;;2.90;1.70;;;14.80;84.20;;;;;;2005764;28;20177;-70
2022/01/21 05:36:28;;;;;;;2.20;1.50;;;14.80;84.20;;;;;;2006045;28;20498;-70
2022/01/21 05:37:26;;;;;;;9.32;1.88;;;14.80;84.00;;;;;;2006174;28;20660;-70
2022/01/21 05:38:25;;;;;;;4.30;1.90;;;14.80;84.00;;;;;;2006954;28;20244;-70
2022/01/21 05:39:23;;;;;;;3.40;1.90;;;14.80;84.00;;;;;;2007120;28;20583;-70
2022/01/21 05:40:24;;;;;;;3.23;1.70;;;14.80;84.20;;;;;;2008520;28;20177;-69
2022/01/21 05:41:23;;;;;;;1.85;1.30;;;14.80;83.80;;;;;;2012532;28;20185;-70
2022/01/21 05:42:23;;;;;;;5.18;1.60;;;14.80;83.90;;;;;;2012999;28;20216;-69
2022/01/21 05:43:21;;;;;;;3.13;1.60;;;14.80;83.90;;;;;;2012723;28;20177;-70
2022/01/21 05:46:57;;;;;;;3.28;1.55;;;14.80;83.90;;;;;;2013048;28;20189;-70
2022/01/21 05:47:56;;;;;;;2.58;1.80;;;14.80;84.00;;;;;;2013189;28;20166;-70
2022/01/21 05:48:54;;;;;;;3.63;1.30;;;14.80;84.00;;;;;;2012447;28;20239;-70
2022/01/21 05:49:53;;;;;;;2.03;1.50;;;14.80;83.90;;;;;;2013290;28;20172;-70
2022/01/21 05:50:52;;;;;;;2.17;1.53;;;14.90;84.20;;;;;;2013219;28;20177;-69
2022/01/21 05:51:53;;;;;;;4.00;1.73;;;14.90;84.30;;;;;;2013303;28;20237;-70
2022/01/21 05:52:51;;;;;;;2.53;1.73;;;14.90;84.10;;;;;;2012619;28;20196;-72
2022/01/21 05:53:50;;;;;;;2.07;1.37;;;14.90;84.20;;;;;;2012861;28;20208;-70
2022/01/21 05:54:49;;;;;;;5.57;1.70;;;14.90;84.10;;;;;;2013207;28;20180;-70
2022/01/21 05:55:47;;;;;;;3.30;1.60;;;14.90;83.90;;;;;;2013148;28;20161;-70
2022/01/21 05:56:47;;;;;;;3.90;1.50;;;14.90;84.00;;;;;;2013194;28;20235;-70
2022/01/21 05:57:45;;;;;;;6.05;1.92;;;14.90;84.00;;;;;;2012802;28;20201;-71
2022/01/21 05:58:44;;;;;;;4.50;1.33;;;14.90;84.00;;;;;;2013423;28;20161;-71
2022/01/21 05:59:43;;;;;;;1.80;1.40;;;14.90;84.00;;;;;;2013561;28;20178;-70
2022/01/21 06:00:47;;;;;;;2.13;1.37;;;15.00;84.10;;;;;;2013617;28;20153;-70
2022/01/21 06:01:45;;;;;;;2.75;1.40;;;15.00;84.20;;;;;;2013527;28;20193;-70